createdAt,value
2023-03-23T15:58:29.996Z,30.46
2023-03-23T16:00:57.678Z,30.24
2023-03-23T16:03:28.144Z,30.41
2023-03-23T16:05:56.196Z,30.38
2023-03-23T16:08:23.091Z,30.88
2023-03-23T16:10:50.630Z,30.76
2023-03-23T16:13:18.366Z,30.50
2023-03-23T16:15:46.984Z,30.95
2023-03-23T16:18:22.211Z,31.24
2023-03-23T16:20:49.808Z,32.07
2023-03-23T16:23:17.066Z,32.67
2023-03-23T16:25:43.878Z,33.24
2023-03-23T16:28:14.793Z,34.64
2023-03-23T16:30:43.656Z,35.78
2023-03-23T16:33:10.532Z,36.64
2023-03-23T16:35:37.380Z,36.94
2023-03-23T16:38:08.406Z,40.14
2023-03-23T16:40:36.902Z,38.38
2023-03-23T16:43:08.267Z,40.26
2023-03-23T16:45:37.320Z,39.45
2023-03-23T16:48:05.253Z,40.80
2023-03-23T16:50:33.697Z,41.64
2023-03-23T16:53:00.861Z,40.71
2023-03-23T16:55:27.907Z,40.04
2023-03-23T16:58:01.059Z,39.15
2023-03-23T17:00:36.154Z,38.89
2023-03-23T17:03:02.942Z,39.77
2023-03-23T17:05:29.932Z,38.73
2023-03-23T17:07:56.969Z,38.21
2023-03-23T17:10:27.083Z,38.61
2023-03-23T17:12:54.984Z,39.35
2023-03-23T17:15:21.915Z,39.45
2023-03-23T17:17:48.452Z,38.63
2023-03-23T17:20:15.144Z,38.30
2023-03-23T17:22:41.989Z,38.35
2023-03-23T17:25:09.320Z,38.08
2023-03-23T17:27:36.947Z,37.78
2023-03-23T17:30:08.279Z,37.36
2023-03-23T17:32:35.295Z,37.13
2023-03-23T17:35:02.389Z,37.23
2023-03-23T17:37:28.948Z,37.10
2023-03-23T17:39:55.490Z,37.23
2023-03-23T17:42:22.061Z,37.13
2023-03-23T17:44:48.725Z,36.56
2023-03-23T17:47:15.589Z,37.11
2023-03-23T17:49:42.154Z,36.75
2023-03-23T17:52:08.851Z,36.91
2023-03-23T17:54:35.894Z,36.80
2023-03-23T17:57:03.947Z,36.76
2023-03-23T17:59:31.315Z,37.27
2023-03-23T18:01:58.120Z,37.80
2023-03-23T18:04:26.936Z,37.85
2023-03-23T18:06:57.715Z,37.12
2023-03-23T18:09:25.813Z,37.48
2023-03-23T18:11:53.076Z,37.20
2023-03-23T18:14:20.786Z,37.61
2023-03-23T18:16:47.881Z,37.74
2023-03-23T18:19:14.741Z,37.91
2023-03-23T18:21:41.924Z,37.88
2023-03-23T18:24:09.548Z,37.57
2023-03-23T18:26:36.468Z,37.15
2023-03-23T18:29:03.607Z,37.74
2023-03-23T18:31:30.401Z,37.07
2023-03-23T18:33:57.089Z,36.59
2023-03-23T18:36:26.243Z,36.58
2023-03-23T18:38:56.632Z,38.32
2023-03-23T18:41:24.061Z,37.29
2023-03-23T18:43:51.127Z,36.88
2023-03-23T18:46:18.412Z,36.94
2023-03-23T18:48:45.147Z,36.66
2023-03-23T18:51:12.205Z,36.83
2023-03-23T18:53:38.954Z,36.85
2023-03-23T18:56:08.855Z,37.01
2023-03-23T18:58:37.956Z,36.93
2023-03-23T19:01:11.926Z,37.63
2023-03-23T19:03:40.165Z,37.53
2023-03-23T19:06:13.259Z,37.51
2023-03-23T19:08:39.753Z,37.19
2023-03-23T19:11:06.751Z,36.79
2023-03-23T19:13:37.567Z,37.73
2023-03-23T19:16:05.785Z,37.85
2023-03-23T19:18:36.821Z,38.15
2023-03-23T19:23:33.696Z,37.92
2023-03-23T19:26:00.817Z,37.81
2023-03-23T19:30:58.311Z,37.35
2023-03-23T19:33:26.220Z,38.38
2023-03-23T19:36:05.695Z,37.76
2023-03-23T19:38:35.741Z,38.27
2023-03-23T19:41:03.843Z,38.51
2023-03-23T19:43:32.229Z,38.71
2023-03-23T19:46:00.111Z,38.13
2023-03-23T19:48:27.227Z,38.77
2023-03-23T19:50:55.792Z,39.35
2023-03-23T19:53:23.102Z,39.30
2023-03-23T19:55:51.250Z,39.41
2023-03-23T19:58:18.273Z,39.19
2023-03-23T20:00:45.821Z,38.84
2023-03-23T20:03:13.018Z,38.88
2023-03-23T20:05:40.867Z,38.76
2023-03-23T20:08:09.778Z,38.76
2023-03-23T20:10:36.774Z,39.48
2023-03-23T20:13:06.394Z,39.29
2023-03-23T20:15:33.522Z,39.90
2023-03-23T20:18:00.961Z,40.37
2023-03-23T20:20:28.742Z,40.58
2023-03-23T20:22:58.222Z,40.88
2023-03-23T20:25:26.162Z,41.33
2023-03-23T20:27:55.063Z,41.76
2023-03-23T20:30:21.843Z,41.31
2023-03-23T20:32:49.061Z,41.22
2023-03-23T20:35:16.396Z,41.62
2023-03-23T20:37:43.337Z,41.24
2023-03-23T20:40:14.590Z,41.69
2023-03-23T20:42:43.683Z,41.07
2023-03-23T20:45:13.196Z,41.88
2023-03-23T20:47:40.905Z,42.02
2023-03-23T20:50:09.215Z,40.93
2023-03-23T20:52:36.762Z,40.68
2023-03-23T20:55:04.027Z,41.13
2023-03-23T20:57:30.621Z,40.47
2023-03-23T20:59:57.246Z,41.04
2023-03-23T21:02:25.987Z,41.30
2023-03-23T21:04:58.457Z,40.74
2023-03-23T21:07:27.401Z,40.92
2023-03-23T21:09:53.967Z,40.32
2023-03-23T21:12:20.651Z,40.62
2023-03-23T21:14:47.573Z,41.51
2023-03-23T21:17:14.171Z,41.53
2023-03-23T21:19:41.760Z,41.83
2023-03-23T21:22:10.212Z,42.15
2023-03-23T21:24:38.768Z,41.91
2023-03-23T21:27:05.343Z,42.27
2023-03-23T21:29:32.869Z,42.73
2023-03-23T21:34:29.783Z,42.72
2023-03-23T21:36:56.395Z,42.70
2023-03-23T21:39:23.502Z,43.18
2023-03-23T21:41:50.336Z,42.54
2023-03-23T21:44:17.985Z,42.03
2023-03-23T21:46:44.909Z,43.25
2023-03-23T21:49:13.966Z,42.46
2023-03-23T21:51:41.688Z,42.51
2023-03-23T21:54:10.061Z,43.01
2023-03-23T21:56:36.840Z,42.72
2023-03-23T21:59:04.659Z,43.09
2023-03-23T22:01:31.436Z,43.22
2023-03-23T22:03:58.294Z,43.07
2023-03-23T22:06:28.895Z,42.54
2023-03-23T22:08:56.140Z,43.34
2023-03-23T22:11:25.885Z,44.09
2023-03-23T22:13:53.877Z,44.32
2023-03-23T22:16:21.284Z,44.76
2023-03-23T22:18:50.044Z,44.98
2023-03-23T22:21:17.450Z,44.72
2023-03-23T22:23:45.484Z,44.65
2023-03-23T22:26:13.079Z,44.58
2023-03-23T22:28:40.468Z,44.44
2023-03-23T22:31:13.626Z,44.29
2023-03-23T22:33:40.450Z,43.88
2023-03-23T22:36:07.816Z,43.87
2023-03-23T22:38:36.248Z,43.36
2023-03-23T22:41:06.752Z,43.53
2023-03-23T22:43:34.622Z,43.37
2023-03-23T22:46:01.225Z,42.92
2023-03-23T22:48:28.356Z,43.08
2023-03-23T22:50:55.589Z,43.34
2023-03-23T22:53:22.231Z,43.69
2023-03-23T22:55:51.222Z,43.33
2023-03-23T22:58:18.148Z,43.38
2023-03-23T23:00:48.894Z,43.52
2023-03-23T23:03:16.650Z,42.83
2023-03-23T23:05:45.719Z,42.67
2023-03-23T23:08:13.825Z,42.77
2023-03-23T23:10:44.796Z,42.87
2023-03-23T23:13:13.022Z,42.80
2023-03-23T23:15:46.492Z,42.34
2023-03-23T23:18:13.858Z,42.59
2023-03-23T23:20:41.373Z,42.55
2023-03-23T23:23:08.114Z,43.11
2023-03-23T23:25:35.318Z,42.79
2023-03-23T23:28:04.308Z,42.85
2023-03-23T23:30:31.404Z,42.58
2023-03-23T23:32:58.989Z,42.42
2023-03-23T23:35:26.247Z,42.53
2023-03-23T23:37:52.981Z,42.36
2023-03-23T23:40:20.533Z,42.23
2023-03-23T23:42:49.867Z,41.80
2023-03-23T23:45:18.048Z,41.49
2023-03-23T23:47:45.964Z,41.48
2023-03-23T23:50:14.408Z,41.40
2023-03-23T23:52:42.460Z,41.53
2023-03-23T23:55:10.039Z,41.69
2023-03-23T23:57:37.016Z,42.02
